Draco — CURK3 — position and weather

sailwx.info

Track history (hours):
 
Tides and Currents Weather Stations Pressure Air Temp Water Temp Dewpoint Dewpoint Depression Visibility Wind Speed Wind Dir Waves Ship Positions

Draco

Last reported at 2018-Jun-19 00:23 UTC. Time now 2018-Jun-20 09:44 UTC.
Position N 41°07' W 008°44'.

Length 25 m.

Type: Fishing. MMSI: 263407860.

Date/timePositionNaut miles runAvg speedWind from/ knotsBaromVisibWave heightAir tempDewpointWater temp
2018-Jun-19 00:23N 41°07' W 008°44'3 8.3
2018-Jun-19 00:01N 41°10' W 008°42'1 1.5
2018-Jun-18 23:30N 41°11' W 008°42'0 0.0
2018-Jun-18 23:00N 41°11' W 008°42'0 0.0
2018-Jun-18 22:30N 41°11' W 008°42'0 0.0
2018-Jun-18 22:00N 41°11' W 008°42'  
2018-Jun-13 01:41N 41°09' W 008°47'2 8.6
2018-Jun-13 01:30N 41°10' W 008°45'3 5.7
2018-Jun-13 01:00N 41°11' W 008°42'0 0.0
2018-Jun-13 00:30N 41°11' W 008°42'0 0.0
2018-Jun-13 00:00N 41°11' W 008°42'0 0.0
2018-Jun-12 23:30N 41°11' W 008°42'0 0.0
2018-Jun-12 23:00N 41°11' W 008°42'0 0.0
2018-Jun-12 22:30N 41°11' W 008°42'0 0.0
2018-Jun-12 22:00N 41°11' W 008°42'0 0.0
2018-Jun-12 21:30N 41°11' W 008°42'0 0.0
2018-Jun-12 21:00N 41°11' W 008°42'0 0.0
2018-Jun-12 20:30N 41°11' W 008°42'0 0.0
2018-Jun-12 20:00N 41°11' W 008°42'0 0.0
2018-Jun-12 19:30N 41°11' W 008°42'0 0.0
2018-Jun-12 19:00N 41°11' W 008°42'0 0.0
2018-Jun-12 18:30N 41°11' W 008°42'0 0.0
2018-Jun-12 18:00N 41°11' W 008°42'0 0.0
2018-Jun-12 17:30N 41°11' W 008°42'0 0.0
2018-Jun-12 17:00N 41°11' W 008°42'0 0.0
2018-Jun-12 16:30N 41°11' W 008°42'0 0.0
2018-Jun-12 16:00N 41°11' W 008°42'3 6.4
2018-Jun-12 15:31N 41°09' W 008°45'1 0.0
2018-Jun-11 18:55N 41°08' W 008°45'3 8.5
2018-Jun-11 18:31N 41°11' W 008°42'0 0.1
2018-Jun-11 18:00N 41°11' W 008°42'0 0.0
2018-Jun-11 17:30N 41°11' W 008°42'0 0.0
2018-Jun-11 17:00N 41°11' W 008°42'0 0.0
2018-Jun-11 16:30N 41°11' W 008°42'0 0.0
2018-Jun-11 16:00N 41°11' W 008°42'0 0.0
2018-Jun-11 15:30N 41°11' W 008°42'0 0.0
2018-Jun-11 15:00N 41°11' W 008°42'0 0.0
2018-Jun-11 14:30N 41°11' W 008°42'0 0.0
2018-Jun-11 14:00N 41°11' W 008°42'0 0.0
2018-Jun-11 13:30N 41°11' W 008°42'0 0.0
2018-Jun-11 13:00N 41°11' W 008°42'0 0.0
2018-Jun-11 12:30N 41°11' W 008°42'0 0.0
2018-Jun-11 12:00N 41°11' W 008°42'0 0.0
2018-Jun-11 11:30N 41°11' W 008°42'0 0.0
2018-Jun-11 11:00N 41°11' W 008°42'0 0.0
2018-Jun-11 10:30N 41°11' W 008°42'0 0.0
2018-Jun-11 10:00N 41°11' W 008°42'0 0.0
2018-Jun-11 09:30N 41°11' W 008°42'0 0.0
2018-Jun-11 09:00N 41°11' W 008°42'0 0.0
2018-Jun-11 08:30N 41°11' W 008°42'0 0.0
2018-Jun-11 08:00N 41°11' W 008°42'0 0.0
2018-Jun-11 07:30N 41°11' W 008°42'0 0.0
2018-Jun-11 07:00N 41°11' W 008°42'0 0.0
2018-Jun-11 06:30N 41°11' W 008°42'0 0.0
2018-Jun-11 06:00N 41°11' W 008°42'0 0.0
2018-Jun-11 05:30N 41°11' W 008°42'0 0.0
2018-Jun-11 05:00N 41°11' W 008°42'0 0.0
2018-Jun-11 04:30N 41°11' W 008°42'0 0.0
2018-Jun-11 04:00N 41°11' W 008°42'0 0.0
2018-Jun-11 03:30N 41°11' W 008°42'0 0.0
2018-Jun-11 03:00N 41°11' W 008°42'0 0.0
2018-Jun-11 02:30N 41°11' W 008°42'0 0.0
2018-Jun-11 02:00N 41°11' W 008°42'0 0.0
2018-Jun-11 01:30N 41°11' W 008°42'0 0.0
2018-Jun-11 01:00N 41°11' W 008°42'0 0.0
2018-Jun-11 00:30N 41°11' W 008°42'0 0.0
2018-Jun-11 00:00N 41°11' W 008°42'0 0.0
2018-Jun-10 23:30N 41°11' W 008°42'0 0.0
2018-Jun-10 23:00N 41°11' W 008°42'0 0.0
2018-Jun-10 22:30N 41°11' W 008°42'0 0.0
2018-Jun-10 22:00N 41°11' W 008°42'0 0.0
2018-Jun-10 21:30N 41°11' W 008°42'0 0.0
2018-Jun-10 21:00N 41°11' W 008°42'0 0.0
2018-Jun-10 20:30N 41°11' W 008°42'0 0.0
2018-Jun-10 20:00N 41°11' W 008°42'0 0.0
2018-Jun-10 19:30N 41°11' W 008°42'0 0.0
2018-Jun-10 19:00N 41°11' W 008°42'0 0.0
2018-Jun-10 18:30N 41°11' W 008°42'0 0.0
2018-Jun-10 18:00N 41°11' W 008°42'0 0.0
2018-Jun-10 17:30N 41°11' W 008°42'0 0.0
2018-Jun-10 17:00N 41°11' W 008°42'0 0.0
2018-Jun-10 16:30N 41°11' W 008°42'0 0.0
2018-Jun-10 16:00N 41°11' W 008°42'0 0.0
2018-Jun-10 15:30N 41°11' W 008°42'0 0.0
2018-Jun-10 15:00N 41°11' W 008°42'0 0.0
2018-Jun-10 14:30N 41°11' W 008°42'0 0.0
2018-Jun-10 13:30N 41°11' W 008°42'0 0.0
2018-Jun-10 13:00N 41°11' W 008°42'0 0.0
2018-Jun-10 12:30N 41°11' W 008°42'0 0.0
2018-Jun-10 12:00N 41°11' W 008°42'0 0.0
2018-Jun-10 11:30N 41°11' W 008°42'0 0.0
2018-Jun-10 11:00N 41°11' W 008°42'0 0.0
2018-Jun-10 10:30N 41°11' W 008°42'0 0.0
2018-Jun-10 10:00N 41°11' W 008°42'0 0.0
2018-Jun-10 09:30N 41°11' W 008°42'0 0.0
2018-Jun-10 09:00N 41°11' W 008°42'0 0.0
2018-Jun-10 08:30N 41°11' W 008°42'0 0.0
2018-Jun-10 08:00N 41°11' W 008°42'0 0.4
2018-Jun-10 07:30N 41°11' W 008°42'4 7.5
2018-Jun-10 07:00N 41°07' W 008°44'  
Track history (hours):
 
Tides and Currents Weather Stations Pressure Air Temp Water Temp Dewpoint Dewpoint Depression Visibility Wind Speed Wind Dir Waves Ship Positions

Draco

Last reported at 2018-Jun-19 00:23 UTC. Time now 2018-Jun-20 09:44 UTC.
Position N 41°07' W 008°44'.

Length 25 m.

Type: Fishing. MMSI: 263407860.

Date/timePositionNaut miles runAvg speedWind from/ knotsBaromVisibWave heightAir tempDewpointWater temp
2018-Jun-19 00:23N 41°07' W 008°44'3 8.3
2018-Jun-19 00:01N 41°10' W 008°42'1 1.5
2018-Jun-18 23:30N 41°11' W 008°42'0 0.0
2018-Jun-18 23:00N 41°11' W 008°42'0 0.0
2018-Jun-18 22:30N 41°11' W 008°42'0 0.0
2018-Jun-18 22:00N 41°11' W 008°42'  
2018-Jun-13 01:41N 41°09' W 008°47'2 8.6
2018-Jun-13 01:30N 41°10' W 008°45'3 5.7
2018-Jun-13 01:00N 41°11' W 008°42'0 0.0
2018-Jun-13 00:30N 41°11' W 008°42'0 0.0
2018-Jun-13 00:00N 41°11' W 008°42'0 0.0
2018-Jun-12 23:30N 41°11' W 008°42'0 0.0
2018-Jun-12 23:00N 41°11' W 008°42'0 0.0
2018-Jun-12 22:30N 41°11' W 008°42'0 0.0
2018-Jun-12 22:00N 41°11' W 008°42'0 0.0
2018-Jun-12 21:30N 41°11' W 008°42'0 0.0
2018-Jun-12 21:00N 41°11' W 008°42'0 0.0
2018-Jun-12 20:30N 41°11' W 008°42'0 0.0
2018-Jun-12 20:00N 41°11' W 008°42'0 0.0
2018-Jun-12 19:30N 41°11' W 008°42'0 0.0
2018-Jun-12 19:00N 41°11' W 008°42'0 0.0
2018-Jun-12 18:30N 41°11' W 008°42'0 0.0
2018-Jun-12 18:00N 41°11' W 008°42'0 0.0
2018-Jun-12 17:30N 41°11' W 008°42'0 0.0
2018-Jun-12 17:00N 41°11' W 008°42'0 0.0
2018-Jun-12 16:30N 41°11' W 008°42'0 0.0
2018-Jun-12 16:00N 41°11' W 008°42'3 6.4
2018-Jun-12 15:31N 41°09' W 008°45'1 0.0
2018-Jun-11 18:55N 41°08' W 008°45'3 8.5
2018-Jun-11 18:31N 41°11' W 008°42'0 0.1
2018-Jun-11 18:00N 41°11' W 008°42'0 0.0
2018-Jun-11 17:30N 41°11' W 008°42'0 0.0
2018-Jun-11 17:00N 41°11' W 008°42'0 0.0
2018-Jun-11 16:30N 41°11' W 008°42'0 0.0
2018-Jun-11 16:00N 41°11' W 008°42'0 0.0
2018-Jun-11 15:30N 41°11' W 008°42'0 0.0
2018-Jun-11 15:00N 41°11' W 008°42'0 0.0
2018-Jun-11 14:30N 41°11' W 008°42'0 0.0
2018-Jun-11 14:00N 41°11' W 008°42'0 0.0
2018-Jun-11 13:30N 41°11' W 008°42'0 0.0
2018-Jun-11 13:00N 41°11' W 008°42'0 0.0
2018-Jun-11 12:30N 41°11' W 008°42'0 0.0
2018-Jun-11 12:00N 41°11' W 008°42'0 0.0
2018-Jun-11 11:30N 41°11' W 008°42'0 0.0
2018-Jun-11 11:00N 41°11' W 008°42'0 0.0
2018-Jun-11 10:30N 41°11' W 008°42'0 0.0
2018-Jun-11 10:00N 41°11' W 008°42'0 0.0
2018-Jun-11 09:30N 41°11' W 008°42'0 0.0
2018-Jun-11 09:00N 41°11' W 008°42'0 0.0
2018-Jun-11 08:30N 41°11' W 008°42'0 0.0
2018-Jun-11 08:00N 41°11' W 008°42'0 0.0
2018-Jun-11 07:30N 41°11' W 008°42'0 0.0
2018-Jun-11 07:00N 41°11' W 008°42'0 0.0
2018-Jun-11 06:30N 41°11' W 008°42'0 0.0
2018-Jun-11 06:00N 41°11' W 008°42'0 0.0
2018-Jun-11 05:30N 41°11' W 008°42'0 0.0
2018-Jun-11 05:00N 41°11' W 008°42'0 0.0
2018-Jun-11 04:30N 41°11' W 008°42'0 0.0
2018-Jun-11 04:00N 41°11' W 008°42'0 0.0
2018-Jun-11 03:30N 41°11' W 008°42'0 0.0
2018-Jun-11 03:00N 41°11' W 008°42'0 0.0
2018-Jun-11 02:30N 41°11' W 008°42'0 0.0
2018-Jun-11 02:00N 41°11' W 008°42'0 0.0
2018-Jun-11 01:30N 41°11' W 008°42'0 0.0
2018-Jun-11 01:00N 41°11' W 008°42'0 0.0
2018-Jun-11 00:30N 41°11' W 008°42'0 0.0
2018-Jun-11 00:00N 41°11' W 008°42'0 0.0
2018-Jun-10 23:30N 41°11' W 008°42'0 0.0
2018-Jun-10 23:00N 41°11' W 008°42'0 0.0
2018-Jun-10 22:30N 41°11' W 008°42'0 0.0
2018-Jun-10 22:00N 41°11' W 008°42'0 0.0
2018-Jun-10 21:30N 41°11' W 008°42'0 0.0
2018-Jun-10 21:00N 41°11' W 008°42'0 0.0
2018-Jun-10 20:30N 41°11' W 008°42'0 0.0
2018-Jun-10 20:00N 41°11' W 008°42'0 0.0
2018-Jun-10 19:30N 41°11' W 008°42'0 0.0
2018-Jun-10 19:00N 41°11' W 008°42'0 0.0
2018-Jun-10 18:30N 41°11' W 008°42'0 0.0
2018-Jun-10 18:00N 41°11' W 008°42'0 0.0
2018-Jun-10 17:30N 41°11' W 008°42'0 0.0
2018-Jun-10 17:00N 41°11' W 008°42'0 0.0
2018-Jun-10 16:30N 41°11' W 008°42'0 0.0
2018-Jun-10 16:00N 41°11' W 008°42'0 0.0
2018-Jun-10 15:30N 41°11' W 008°42'0 0.0
2018-Jun-10 15:00N 41°11' W 008°42'0 0.0
2018-Jun-10 14:30N 41°11' W 008°42'0 0.0
2018-Jun-10 13:30N 41°11' W 008°42'0 0.0
2018-Jun-10 13:00N 41°11' W 008°42'0 0.0
2018-Jun-10 12:30N 41°11' W 008°42'0 0.0
2018-Jun-10 12:00N 41°11' W 008°42'0 0.0
2018-Jun-10 11:30N 41°11' W 008°42'0 0.0
2018-Jun-10 11:00N 41°11' W 008°42'0 0.0
2018-Jun-10 10:30N 41°11' W 008°42'0 0.0
2018-Jun-10 10:00N 41°11' W 008°42'0 0.0
2018-Jun-10 09:30N 41°11' W 008°42'0 0.0
2018-Jun-10 09:00N 41°11' W 008°42'0 0.0
2018-Jun-10 08:30N 41°11' W 008°42'0 0.0
2018-Jun-10 08:00N 41°11' W 008°42'0 0.4
2018-Jun-10 07:30N 41°11' W 008°42'4 7.5
2018-Jun-10 07:00N 41°07' W 008°44'  

Dump ship's entire track history